sim
Sign-in with your pilot id or email,
or register
Callsign
Passwort

Schedule Details

Flight Number: RYR7129
Departure: Fuerteventura Airport (GCFV) at 19:10
Arrival: Dublin Airport (EIDW) at 23:30
Route: Ryanair Passenger Schedule. Enter filed route here before submitting Pirep.

Weather Information
Getting current METAR information for GCFV 211800Z 01019KT CAVOK 26/18 Q1013
Getting current METAR information for EIDW 211800Z 21013G24KT 180V270 9999 -RA SCT016 BKN040 15/13 Q1017 NOSIG

Schedule Frequency

Route Map